Terminal Aerodrome Forecast
Issued by NWS Albany, NY

Home | Current Version | Previous Version | Text Only | Print | Product List | Glossary On
Versions: 1 2 3 4 5 6 7 8 9 10 11 12 13 14 15 16 17 18 19 20 21 22 23
000
FTUS41 KALY 230333 AAA
TAFPOU
TAF AMD
KPOU 230333Z 2304/2324 04003KT P6SM BKN015
     FM231400 16004KT P6SM SCT015 BKN150
     FM231700 16006KT 5SM -RA BR OVC035
     FM232100 16006KT 3SM -RA BR OVC020=

USA.gov is the U.S. government's official web portal to all federal, state and local government web resources and services.